Time;durP1;ratioP1;P1;durP2;ratioP2;P2;SDS_P1;SDS_P2;PMS_P1;PMS_P2;Temp;Humidity;BMP_temperature;BMP_pressure;BME280_temperature;BME280_humidity;BME280_pressure;Samples;Min_cycle;Max_cycle;Signal;HPM_P1;HPM_P2
2023/08/06 00:00:04;;;;;;;14.43;2.38;;;15.70;90.90;;;;;;4947933;28;20380;-71
2023/08/06 00:02:31;;;;;;;6.68;1.67;;;15.80;90.70;;;;;;4946200;28;20090;-69
2023/08/06 00:04:58;;;;;;;11.88;1.55;;;15.80;89.50;;;;;;4950378;28;20034;-69
2023/08/06 00:07:26;;;;;;;7.63;1.23;;;15.90;90.20;;;;;;4951161;28;20601;-70
2023/08/06 00:09:53;;;;;;;7.90;1.50;;;15.90;90.00;;;;;;4949837;28;20064;-70
2023/08/06 00:12:20;;;;;;;7.15;1.30;;;15.90;88.70;;;;;;4955722;28;20137;-69
2023/08/06 00:14:52;;;;;;;6.85;1.50;;;16.10;88.80;;;;;;4948392;28;20040;-69
2023/08/06 00:17:19;;;;;;;7.25;1.38;;;16.10;89.00;;;;;;4947698;28;20040;-70
2023/08/06 00:19:46;;;;;;;7.25;1.65;;;16.10;88.40;;;;;;4943352;28;20039;-69
2023/08/06 00:22:14;;;;;;;8.20;1.48;;;16.20;88.10;;;;;;4952903;28;20114;-68
2023/08/06 00:24:41;;;;;;;7.50;1.45;;;16.10;87.20;;;;;;4951188;28;20545;-68
2023/08/06 00:27:08;;;;;;;10.25;1.80;;;16.10;87.10;;;;;;4951118;28;20036;-69
2023/08/06 00:29:36;;;;;;;11.77;1.60;;;16.10;88.00;;;;;;4948759;28;20028;-69
2023/08/06 00:32:03;;;;;;;5.25;1.40;;;16.10;87.90;;;;;;4953872;28;20039;-69
2023/08/06 00:34:31;;;;;;;15.05;1.67;;;16.20;88.20;;;;;;4950099;28;20114;-70
2023/08/06 00:36:58;;;;;;;8.85;1.67;;;16.20;88.10;;;;;;4954196;28;20119;-69
2023/08/06 00:39:25;;;;;;;6.88;1.42;;;16.30;88.40;;;;;;4951443;28;20126;-70
2023/08/06 00:41:53;;;;;;;10.98;2.28;;;16.30;87.20;;;;;;4954263;28;20137;-71
2023/08/06 00:44:20;;;;;;;15.93;3.13;;;16.30;88.50;;;;;;4951289;28;20027;-69
2023/08/06 00:46:47;;;;;;;8.45;1.63;;;16.30;87.90;;;;;;4954609;28;20503;-68
2023/08/06 00:49:15;;;;;;;9.48;1.58;;;16.30;87.20;;;;;;4949924;28;20516;-69
2023/08/06 00:51:43;;;;;;;7.72;1.45;;;16.40;87.80;;;;;;4955440;28;20028;-69
2023/08/06 00:54:11;;;;;;;8.40;1.20;;;16.40;87.10;;;;;;4950048;28;20042;-69
2023/08/06 00:56:38;;;;;;;3.90;1.40;;;16.50;86.50;;;;;;4952904;28;20430;-72
2023/08/06 00:59:07;;;;;;;7.22;1.20;;;16.50;87.80;;;;;;4952693;28;20023;-68
2023/08/06 01:01:35;;;;;;;7.60;1.30;;;16.50;86.60;;;;;;4954836;28;20392;-71
2023/08/06 01:04:02;;;;;;;10.30;1.88;;;16.40;86.90;;;;;;4943246;28;20058;-70
2023/08/06 01:06:51;;;;;;;6.90;1.15;;;16.40;86.80;;;;;;4961188;28;20034;-70
2023/08/06 01:09:39;;;;;;;9.38;1.73;;;16.50;86.80;;;;;;4949739;28;20058;-70
2023/08/06 01:12:09;;;;;;;;;;;16.50;86.00;;;;;;4948942;28;20027;-70
2023/08/06 01:14:58;;;;;;;10.30;1.30;;;16.50;86.60;;;;;;4950476;28;19911;-70
2023/08/06 01:17:26;;;;;;;12.23;1.88;;;16.50;86.90;;;;;;4954289;28;20093;-70
2023/08/06 01:19:54;;;;;;;10.43;1.33;;;16.50;87.00;;;;;;4950531;28;20020;-70
2023/08/06 01:22:21;;;;;;;13.73;2.40;;;16.50;87.10;;;;;;4951200;28;20487;-70
2023/08/06 01:24:51;;;;;;;10.52;1.85;;;16.50;86.70;;;;;;4948700;28;20038;-69
2023/08/06 01:27:26;;;;;;;10.85;1.48;;;16.60;86.40;;;;;;4956431;28;20134;-69
2023/08/06 01:30:13;;;;;;;10.10;1.60;;;16.60;88.30;;;;;;4949486;28;20082;-70
2023/08/06 01:32:44;;;;;;;6.45;1.80;;;16.90;85.00;;;;;;4948848;28;20381;-70
2023/08/06 01:35:15;;;;;;;6.10;1.20;;;16.80;85.50;;;;;;4947197;28;20035;-70
2023/08/06 01:37:43;;;;;;;11.00;2.28;;;16.70;86.80;;;;;;4951825;28;20027;-70
2023/08/06 01:40:14;;;;;;;10.52;1.77;;;16.80;86.70;;;;;;4957010;28;20035;-70
2023/08/06 01:42:42;;;;;;;5.90;1.52;;;17.00;85.80;;;;;;4952333;28;20037;-70
2023/08/06 01:45:10;;;;;;;15.48;1.42;;;16.90;85.80;;;;;;4951886;28;20126;-70
2023/08/06 01:47:37;;;;;;;11.50;1.67;;;16.80;86.10;;;;;;4950305;28;20043;-69
2023/08/06 01:50:05;;;;;;;13.23;1.48;;;16.80;86.30;;;;;;4951158;28;20027;-69
2023/08/06 01:52:32;;;;;;;10.45;1.45;;;16.90;86.90;;;;;;4951972;28;20462;-69
2023/08/06 01:54:59;;;;;;;8.43;1.67;;;17.00;87.60;;;;;;4953546;28;20074;-69
2023/08/06 01:57:27;;;;;;;4.07;1.38;;;17.20;86.50;;;;;;4952634;28;20063;-69
2023/08/06 01:59:54;;;;;;;11.50;1.55;;;17.10;87.00;;;;;;4953135;28;20070;-68
2023/08/06 02:02:21;;;;;;;16.20;1.27;;;17.40;85.90;;;;;;4950486;28;20039;-69
2023/08/06 02:04:49;;;;;;;11.68;2.85;;;17.30;85.00;;;;;;4947713;28;20101;-71
2023/08/06 02:07:16;;;;;;;9.13;2.30;;;17.30;86.30;;;;;;4951457;28;20031;-69
2023/08/06 02:09:43;;;;;;;10.85;2.03;;;17.30;85.20;;;;;;4948823;28;20046;-71
2023/08/06 02:12:11;;;;;;;5.45;1.30;;;17.40;85.10;;;;;;4953794;28;20065;-70
2023/08/06 02:14:38;;;;;;;8.15;1.83;;;17.60;85.00;;;;;;4951193;28;20035;-70
2023/08/06 02:17:06;;;;;;;10.75;1.83;;;17.50;85.20;;;;;;4950541;28;20081;-70
2023/08/06 02:19:33;;;;;;;10.02;2.22;;;17.60;83.50;;;;;;4950635;28;20143;-70
2023/08/06 02:22:02;;;;;;;9.50;1.50;;;17.70;83.60;;;;;;4951734;28;20118;-70
2023/08/06 02:24:29;;;;;;;8.40;1.73;;;18.00;82.60;;;;;;4947553;28;20050;-70
2023/08/06 02:26:56;;;;;;;5.05;1.90;;;18.20;80.50;;;;;;4949775;28;20118;-70
2023/08/06 02:29:23;;;;;;;8.77;2.03;;;18.20;80.90;;;;;;4950460;28;20035;-70
2023/08/06 02:31:51;;;;;;;6.40;1.77;;;18.20;81.30;;;;;;4955497;28;20074;-70
2023/08/06 02:34:18;;;;;;;6.68;2.08;;;18.30;80.40;;;;;;4952139;28;20031;-69
2023/08/06 02:36:45;;;;;;;12.40;1.52;;;18.40;79.10;;;;;;4945689;28;20039;-69
2023/08/06 02:39:13;;;;;;;9.80;1.42;;;18.40;77.60;;;;;;4947836;28;20091;-69
2023/08/06 02:41:40;;;;;;;7.50;1.50;;;18.30;78.10;;;;;;4950170;28;20051;-70
2023/08/06 02:44:07;;;;;;;10.63;2.28;;;18.20;77.80;;;;;;4951520;28;20031;-69
2023/08/06 02:46:35;;;;;;;8.77;1.50;;;18.00;79.60;;;;;;4950375;28;20142;-70
2023/08/06 02:49:02;;;;;;;8.18;1.63;;;18.00;79.30;;;;;;4948298;28;20082;-70
2023/08/06 02:51:29;;;;;;;7.93;1.48;;;18.00;78.50;;;;;;4953029;28;20459;-69
2023/08/06 02:53:56;;;;;;;5.63;1.73;;;17.80;79.00;;;;;;4948356;28;20103;-68
2023/08/06 02:56:24;;;;;;;10.02;1.55;;;17.80;79.00;;;;;;4952569;28;20475;-68
2023/08/06 02:58:51;;;;;;;11.55;2.03;;;17.80;79.60;;;;;;4951424;28;20053;-70
2023/08/06 03:01:18;;;;;;;11.23;1.60;;;17.90;80.80;;;;;;4950001;28;22094;-70
2023/08/06 03:03:46;;;;;;;7.22;2.20;;;17.90;79.10;;;;;;4949053;28;20031;-69
2023/08/06 03:06:13;;;;;;;7.25;2.20;;;18.00;79.60;;;;;;4952517;28;20346;-70
2023/08/06 03:08:40;;;;;;;7.15;1.40;;;17.90;79.80;;;;;;4950699;28;20075;-71
2023/08/06 03:11:08;;;;;;;8.00;1.52;;;17.90;78.70;;;;;;4945249;28;20031;-71
2023/08/06 03:13:35;;;;;;;11.77;2.30;;;18.00;77.80;;;;;;4949176;28;20028;-69
2023/08/06 03:16:02;;;;;;;10.43;1.77;;;18.00;79.00;;;;;;4950775;28;20074;-70
2023/08/06 03:18:30;;;;;;;8.38;1.80;;;17.90;79.50;;;;;;4948891;28;21010;-68
2023/08/06 03:20:57;;;;;;;11.40;2.25;;;17.80;79.60;;;;;;4952194;28;20023;-69
2023/08/06 03:23:24;;;;;;;7.68;1.75;;;17.90;78.70;;;;;;4952027;28;20042;-69
2023/08/06 03:25:52;;;;;;;6.72;1.20;;;17.90;79.60;;;;;;4951311;28;20118;-70
2023/08/06 03:28:19;;;;;;;7.65;1.42;;;17.90;78.60;;;;;;4948500;28;20101;-70
2023/08/06 03:30:46;;;;;;;7.15;1.27;;;17.90;78.90;;;;;;4948838;28;20033;-70
2023/08/06 03:33:14;;;;;;;16.25;7.63;;;18.00;78.10;;;;;;4953220;28;20066;-70
2023/08/06 03:35:41;;;;;;;15.68;2.28;;;18.00;78.60;;;;;;4951380;28;20031;-70
2023/08/06 03:38:08;;;;;;;7.28;1.73;;;18.00;77.90;;;;;;4947684;28;20400;-70
2023/08/06 03:40:39;;;;;;;10.05;1.55;;;18.20;77.80;;;;;;4951957;28;20028;-69
2023/08/06 03:43:06;;;;;;;7.97;2.00;;;18.40;78.40;;;;;;4950518;28;20027;-69
2023/08/06 03:45:33;;;;;;;7.25;1.63;;;18.50;77.50;;;;;;4954058;28;20035;-70
2023/08/06 03:48:01;;;;;;;10.48;2.08;;;18.70;76.90;;;;;;4946430;28;20124;-68
2023/08/06 03:50:28;;;;;;;8.45;1.88;;;18.80;75.00;;;;;;4951280;28;20068;-71
2023/08/06 03:52:55;;;;;;;11.43;1.48;;;18.90;73.70;;;;;;4951421;28;20497;-69
2023/08/06 03:55:23;;;;;;;8.25;1.20;;;18.90;73.00;;;;;;4951726;28;20030;-69
2023/08/06 03:57:50;;;;;;;8.07;1.42;;;18.90;74.20;;;;;;4949592;28;20051;-69
2023/08/06 04:00:18;;;;;;;12.20;3.05;;;18.90;74.60;;;;;;4949195;28;20027;-69
2023/08/06 04:02:45;;;;;;;8.35;3.08;;;18.90;74.70;;;;;;4948518;28;20035;-69
2023/08/06 04:05:13;;;;;;;5.40;1.45;;;18.80;74.60;;;;;;4948038;28;20489;-70
2023/08/06 04:07:41;;;;;;;7.93;1.77;;;18.70;75.00;;;;;;4946258;28;20070;-69
2023/08/06 04:10:08;;;;;;;9.82;1.50;;;18.50;75.40;;;;;;4953188;28;20042;-69
2023/08/06 04:12:39;;;;;;;8.23;1.88;;;18.30;74.00;;;;;;4952409;28;20026;-69
2023/08/06 04:15:07;;;;;;;7.15;1.30;;;18.20;75.90;;;;;;4965966;28;20035;-69
2023/08/06 04:17:34;;;;;;;4.90;1.00;;;18.20;76.80;;;;;;4947908;28;20446;-70
2023/08/06 04:20:02;;;;;;;5.70;1.00;;;18.00;76.60;;;;;;4947952;28;20055;-70
2023/08/06 04:22:29;;;;;;;9.45;1.98;;;18.00;76.60;;;;;;4951316;28;20031;-70
2023/08/06 04:24:57;;;;;;;9.45;1.90;;;17.90;77.50;;;;;;4944232;28;20560;-70
2023/08/06 04:27:24;;;;;;;5.72;1.20;;;17.80;76.70;;;;;;4950937;28;20082;-70
2023/08/06 04:29:51;;;;;;;4.72;1.40;;;17.80;77.60;;;;;;4949576;28;20086;-69
2023/08/06 04:32:20;;;;;;;10.18;2.40;;;17.80;77.80;;;;;;4951190;28;20031;-69
2023/08/06 04:34:47;;;;;;;5.65;1.48;;;17.80;78.30;;;;;;4948760;28;20020;-69
2023/08/06 04:37:15;;;;;;;7.78;1.65;;;17.70;77.80;;;;;;4948971;28;20048;-70
2023/08/06 04:39:42;;;;;;;7.80;1.67;;;17.70;77.90;;;;;;4946726;28;20692;-70
2023/08/06 04:42:09;;;;;;;6.13;1.10;;;17.70;77.80;;;;;;4954527;28;20050;-70
2023/08/06 04:44:37;;;;;;;5.80;1.48;;;17.80;77.70;;;;;;4934495;28;20031;-70
2023/08/06 04:47:04;;;;;;;8.95;1.42;;;17.80;77.40;;;;;;4959605;28;20039;-70
2023/08/06 04:49:31;;;;;;;6.38;1.27;;;17.80;76.30;;;;;;4943399;28;20058;-70
2023/08/06 04:51:59;;;;;;;5.93;1.10;;;17.80;75.90;;;;;;4957323;28;20094;-70
2023/08/06 04:54:26;;;;;;;7.32;1.85;;;17.90;75.70;;;;;;4953841;28;20027;-69
2023/08/06 04:56:53;;;;;;;4.70;1.15;;;18.00;76.10;;;;;;4954233;28;20381;-70
2023/08/06 04:59:21;;;;;;;6.47;1.52;;;18.10;76.40;;;;;;4955430;28;20070;-71
2023/08/06 05:01:48;;;;;;;5.60;1.27;;;18.20;76.40;;;;;;4954347;28;20023;-72
2023/08/06 05:04:15;;;;;;;19.88;2.10;;;18.30;75.10;;;;;;4954772;28;20113;-71
2023/08/06 05:06:43;;;;;;;10.15;1.65;;;18.40;74.20;;;;;;4965582;28;20035;-71
2023/08/06 05:09:10;;;;;;;5.55;1.02;;;18.40;74.00;;;;;;4946465;28;20070;-70
2023/08/06 05:11:37;;;;;;;9.35;1.55;;;18.40;75.30;;;;;;4953209;28;20031;-71
2023/08/06 05:14:04;;;;;;;4.60;1.27;;;18.40;73.40;;;;;;4937577;28;20378;-71
2023/08/06 05:16:32;;;;;;;5.00;1.00;;;18.30;73.90;;;;;;4952137;28;20039;-70
2023/08/06 05:18:59;;;;;;;5.65;1.30;;;18.30;73.90;;;;;;4950037;28;20089;-72
2023/08/06 05:21:26;;;;;;;8.98;1.40;;;18.20;73.90;;;;;;4952371;28;20118;-71
2023/08/06 05:23:54;;;;;;;9.35;1.20;;;18.10;74.20;;;;;;4956523;28;20039;-71
2023/08/06 05:26:22;;;;;;;5.95;1.13;;;18.10;73.10;;;;;;4952032;28;20070;-70
2023/08/06 05:28:49;;;;;;;5.18;1.20;;;18.10;73.10;;;;;;4948056;28;20043;-70
2023/08/06 05:31:16;;;;;;;5.38;1.10;;;18.10;74.40;;;;;;4950643;28;20035;-69
2023/08/06 05:33:44;;;;;;;4.78;1.10;;;18.20;74.80;;;;;;4950902;28;20042;-70
2023/08/06 05:36:11;;;;;;;4.93;1.38;;;18.20;74.70;;;;;;4950477;28;20435;-70
2023/08/06 05:38:38;;;;;;;7.60;1.10;;;18.20;74.30;;;;;;4949384;28;20027;-69
2023/08/06 05:41:06;;;;;;;4.70;1.17;;;18.30;74.30;;;;;;4953078;28;20457;-70
2023/08/06 05:43:33;;;;;;;8.73;1.27;;;18.30;74.10;;;;;;4935810;28;20114;-70
2023/08/06 05:46:00;;;;;;;7.18;1.05;;;18.10;74.30;;;;;;4941304;28;20028;-69
2023/08/06 05:48:27;;;;;;;6.53;1.10;;;18.00;74.90;;;;;;4952207;28;20050;-69
2023/08/06 05:50:55;;;;;;;6.88;1.60;;;17.90;75.80;;;;;;4954995;28;20035;-69
2023/08/06 05:53:22;;;;;;;8.27;1.30;;;17.90;76.30;;;;;;4948744;28;20027;-70
2023/08/06 05:55:50;;;;;;;5.10;1.55;;;17.80;76.30;;;;;;4951883;28;20081;-69
2023/08/06 05:58:19;;;;;;;10.77;1.70;;;18.00;76.00;;;;;;4946697;28;20477;-70
2023/08/06 06:00:47;;;;;;;5.18;1.10;;;18.10;75.50;;;;;;4952615;28;20033;-69
2023/08/06 06:03:14;;;;;;;6.10;1.33;;;18.20;74.90;;;;;;4952434;28;20027;-69
2023/08/06 06:05:41;;;;;;;4.85;1.20;;;18.20;74.30;;;;;;4951301;28;20114;-68
2023/08/06 06:08:09;;;;;;;6.97;1.58;;;18.20;75.20;;;;;;4943247;28;20089;-70
2023/08/06 06:10:36;;;;;;;7.35;2.05;;;18.20;74.30;;;;;;4952113;28;20031;-69
2023/08/06 06:13:03;;;;;;;8.02;1.55;;;18.10;74.40;;;;;;4950346;28;20091;-69
2023/08/06 06:15:31;;;;;;;7.60;1.33;;;17.80;74.50;;;;;;4936515;28;20027;-70
2023/08/06 06:17:58;;;;;;;10.35;1.90;;;17.50;76.00;;;;;;4950379;28;20034;-70
2023/08/06 06:20:25;;;;;;;4.53;1.52;;;17.30;77.70;;;;;;4951470;28;20043;-69
2023/08/06 06:22:53;;;;;;;9.05;1.40;;;17.10;78.60;;;;;;4953200;28;20027;-69
2023/08/06 06:25:20;;;;;;;5.05;1.58;;;16.90;79.00;;;;;;4951190;28;20031;-69
2023/08/06 06:27:47;;;;;;;8.23;2.50;;;16.80;80.40;;;;;;4952317;28;20035;-70
2023/08/06 06:30:15;;;;;;;7.82;3.22;;;16.70;80.40;;;;;;4951579;28;20039;-69
2023/08/06 06:32:42;;;;;;;7.38;2.63;;;16.70;80.80;;;;;;4942715;28;20111;-69
2023/08/06 06:35:10;;;;;;;15.25;4.63;;;16.70;81.00;;;;;;4948741;28;20138;-68
2023/08/06 06:37:37;;;;;;;14.63;2.90;;;16.50;81.90;;;;;;4953790;28;20035;-69
2023/08/06 06:40:05;;;;;;;6.40;2.10;;;16.50;82.20;;;;;;4948966;28;20036;-69
2023/08/06 06:42:32;;;;;;;6.97;2.33;;;16.50;82.60;;;;;;4961065;28;20039;-69
2023/08/06 06:45:00;;;;;;;6.90;2.45;;;16.40;82.90;;;;;;4951680;28;20494;-68
2023/08/06 06:47:27;;;;;;;10.75;1.58;;;16.30;83.60;;;;;;4950553;28;20070;-68
2023/08/06 06:49:54;;;;;;;8.13;1.60;;;16.10;84.20;;;;;;4945512;28;20055;-71
2023/08/06 06:52:22;;;;;;;12.27;2.00;;;16.00;85.10;;;;;;4951034;28;20487;-68
2023/08/06 06:54:49;;;;;;;4.60;1.73;;;16.00;85.20;;;;;;4955277;28;20030;-69
2023/08/06 06:57:16;;;;;;;15.98;2.33;;;16.00;84.80;;;;;;4953695;28;20093;-70
2023/08/06 06:59:44;;;;;;;10.10;2.17;;;16.00;85.10;;;;;;4948848;28;20031;-70
2023/08/06 07:02:11;;;;;;;6.75;1.75;;;16.00;85.60;;;;;;4951744;28;20038;-69
2023/08/06 07:04:38;;;;;;;9.05;2.17;;;15.90;85.90;;;;;;4949835;28;20031;-69
2023/08/06 07:07:06;;;;;;;9.50;2.65;;;15.90;86.20;;;;;;4952790;28;21517;-69
2023/08/06 07:09:33;;;;;;;10.75;2.28;;;15.90;86.90;;;;;;4945708;28;20039;-69
2023/08/06 07:12:01;;;;;;;12.77;2.80;;;16.00;86.70;;;;;;4950890;28;20070;-69
2023/08/06 07:14:29;;;;;;;7.60;3.08;;;16.00;86.40;;;;;;4939637;28;20042;-68
2023/08/06 07:16:57;;;;;;;9.52;2.70;;;16.00;86.50;;;;;;4948660;28;20023;-69
2023/08/06 07:19:24;;;;;;;12.48;3.28;;;15.90;87.30;;;;;;4948277;28;20027;-68
2023/08/06 07:21:52;;;;;;;6.75;2.08;;;16.00;87.20;;;;;;4952531;28;20042;-68
2023/08/06 07:24:19;;;;;;;8.38;2.03;;;15.90;88.10;;;;;;4951108;28;20060;-69
2023/08/06 07:26:46;;;;;;;8.95;2.42;;;16.00;87.30;;;;;;4952304;28;20069;-71
2023/08/06 07:29:19;;;;;;;10.48;1.35;;;16.10;86.90;;;;;;4948879;28;20156;-70
2023/08/06 07:31:46;;;;;;;7.18;1.90;;;16.10;86.10;;;;;;4952708;28;20031;-70
2023/08/06 07:34:14;;;;;;;9.55;1.95;;;16.10;86.60;;;;;;4949243;28;20101;-70
2023/08/06 07:36:43;;;;;;;6.57;1.58;;;16.00;86.70;;;;;;4954941;28;20027;-69
2023/08/06 07:39:11;;;;;;;10.85;1.90;;;16.00;87.20;;;;;;4950327;28;20035;-70
2023/08/06 07:41:38;;;;;;;6.53;1.63;;;16.00;86.90;;;;;;4953353;28;20338;-70
2023/08/06 07:44:06;;;;;;;15.15;1.98;;;16.00;86.60;;;;;;4950346;28;20063;-70
2023/08/06 07:46:33;;;;;;;7.97;1.75;;;15.90;87.80;;;;;;4951759;28;20050;-69
2023/08/06 07:49:00;;;;;;;7.95;2.00;;;16.00;86.40;;;;;;4951367;28;20058;-69
2023/08/06 07:51:28;;;;;;;4.63;1.33;;;16.00;85.80;;;;;;4949600;28;20026;-69
2023/08/06 07:53:55;;;;;;;5.88;1.42;;;15.80;86.60;;;;;;4954576;28;20540;-69
2023/08/06 07:56:22;;;;;;;4.97;1.33;;;15.60;87.20;;;;;;4949955;28;20032;-69
2023/08/06 07:58:50;;;;;;;10.00;1.90;;;15.50;87.70;;;;;;4947073;28;20055;-69
2023/08/06 08:01:17;;;;;;;9.73;1.98;;;15.40;87.80;;;;;;4952745;28;20023;-69
2023/08/06 08:03:45;;;;;;;9.25;1.75;;;15.30;88.60;;;;;;4951101;28;20392;-69
2023/08/06 08:06:12;;;;;;;6.03;2.00;;;15.20;88.60;;;;;;4948932;28;20043;-69
2023/08/06 08:08:40;;;;;;;7.53;3.03;;;15.10;89.00;;;;;;4949088;28;20075;-68
2023/08/06 08:11:08;;;;;;;6.15;2.15;;;15.00;89.80;;;;;;4951247;28;20078;-68
2023/08/06 08:13:35;;;;;;;7.07;4.57;;;14.80;90.30;;;;;;4951621;28;20023;-70
2023/08/06 08:16:03;;;;;;;10.73;3.60;;;14.80;90.40;;;;;;4952045;28;20028;-69
2023/08/06 08:18:31;;;;;;;6.72;2.50;;;14.70;90.70;;;;;;4951132;28;20414;-68
2023/08/06 08:20:58;;;;;;;12.10;2.17;;;14.60;91.00;;;;;;4957982;28;20039;-70
2023/08/06 08:23:26;;;;;;;4.95;1.60;;;14.60;91.10;;;;;;4953033;28;20055;-69
2023/08/06 08:25:56;;;;;;;7.63;2.30;;;14.50;91.30;;;;;;4951849;28;20039;-69
2023/08/06 08:28:24;;;;;;;7.13;1.67;;;14.50;91.50;;;;;;4949701;28;20036;-68
2023/08/06 08:30:51;;;;;;;6.32;1.98;;;14.40;91.30;;;;;;4949530;28;20023;-67
2023/08/06 08:33:18;;;;;;;4.15;1.52;;;14.20;92.20;;;;;;4952685;28;20031;-69
2023/08/06 08:35:47;;;;;;;4.15;1.90;;;14.00;92.20;;;;;;4952518;28;20030;-69
2023/08/06 08:38:15;;;;;;;6.63;2.20;;;13.80;92.70;;;;;;4950725;28;20027;-69
2023/08/06 08:40:48;;;;;;;7.90;2.28;;;13.80;93.20;;;;;;4954973;28;20065;-69
2023/08/06 08:43:16;;;;;;;9.18;2.10;;;13.70;93.10;;;;;;4952766;28;20544;-69
2023/08/06 08:45:45;;;;;;;11.65;3.20;;;13.70;93.10;;;;;;4953265;28;20027;-69
2023/08/06 08:48:14;;;;;;;6.72;2.75;;;13.70;92.90;;;;;;4950123;28;20042;-69
2023/08/06 08:50:43;;;;;;;8.65;2.60;;;13.70;92.90;;;;;;4953083;28;20039;-70
2023/08/06 08:53:11;;;;;;;5.53;2.80;;;13.60;93.20;;;;;;4953217;28;20485;-70
2023/08/06 08:55:39;;;;;;;6.68;2.72;;;13.50;93.60;;;;;;4957593;28;20481;-69
2023/08/06 08:58:07;;;;;;;8.20;3.05;;;13.40;93.80;;;;;;4951926;28;20091;-68
2023/08/06 09:00:35;;;;;;;8.18;2.55;;;13.40;94.00;;;;;;4954961;28;20110;-69
2023/08/06 09:03:05;;;;;;;9.18;3.67;;;13.30;94.20;;;;;;4954609;28;20027;-68
2023/08/06 09:05:33;;;;;;;8.80;3.88;;;13.30;94.30;;;;;;4954016;28;20035;-68
2023/08/06 09:08:05;;;;;;;11.43;4.68;;;13.30;94.60;;;;;;4950732;28;20544;-71
2023/08/06 09:10:33;;;;;;;12.60;5.25;;;13.40;94.60;;;;;;4951107;28;20496;-69
2023/08/06 09:13:02;;;;;;;11.43;5.07;;;13.40;94.90;;;;;;4952409;28;20051;-69
2023/08/06 09:15:29;;;;;;;11.27;6.63;;;13.40;94.70;;;;;;4952727;28;20031;-69
2023/08/06 09:17:57;;;;;;;11.80;6.45;;;13.40;94.70;;;;;;4953947;28;20067;-69
2023/08/06 09:20:24;;;;;;;13.52;6.55;;;13.50;94.80;;;;;;4955819;28;20119;-69
2023/08/06 09:22:54;;;;;;;12.85;6.70;;;13.50;95.00;;;;;;4955303;28;20035;-69
2023/08/06 09:25:28;;;;;;;13.13;6.97;;;13.60;94.80;;;;;;4968455;28;20499;-68
2023/08/06 09:27:55;;;;;;;12.05;5.50;;;13.60;94.80;;;;;;4932007;28;20047;-68
2023/08/06 09:30:35;;;;;;;12.15;5.53;;;13.70;94.70;;;;;;4943277;28;20500;-69
2023/08/06 09:33:03;;;;;;;12.43;6.38;;;13.70;94.90;;;;;;4950896;28;20109;-69
2023/08/06 09:35:32;;;;;;;13.45;5.68;;;13.70;94.70;;;;;;4951169;28;20665;-69
2023/08/06 09:38:10;;;;;;;13.07;5.45;;;13.70;94.40;;;;;;4952010;28;20389;-69
2023/08/06 09:40:39;;;;;;;10.65;5.18;;;13.80;94.50;;;;;;4952664;28;20027;-70
2023/08/06 09:43:07;;;;;;;7.75;4.30;;;13.70;94.40;;;;;;4953120;28;20110;-69
2023/08/06 09:45:36;;;;;;;7.85;3.85;;;13.70;94.50;;;;;;4971388;28;20038;-69
2023/08/06 09:48:09;;;;;;;10.32;3.72;;;13.60;94.40;;;;;;4948728;28;20047;-70
2023/08/06 09:50:38;;;;;;;8.55;3.45;;;13.60;94.50;;;;;;4956633;28;20035;-69
2023/08/06 09:53:09;;;;;;;6.53;3.42;;;13.60;94.40;;;;;;4948250;28;20473;-69
2023/08/06 09:55:36;;;;;;;8.07;3.08;;;13.60;94.50;;;;;;4949730;28;20033;-69
2023/08/06 09:58:05;;;;;;;9.13;3.38;;;13.60;94.60;;;;;;4951306;28;20139;-69
2023/08/06 10:00:36;;;;;;;5.45;2.90;;;13.60;94.50;;;;;;4956658;28;20066;-69
2023/08/06 10:03:04;;;;;;;8.05;3.38;;;13.50;94.70;;;;;;4951260;28;20038;-69
2023/08/06 10:05:33;;;;;;;17.27;6.50;;;13.50;94.70;;;;;;4951132;28;20035;-69
2023/08/06 10:08:02;;;;;;;23.58;6.00;;;13.50;94.80;;;;;;4950275;28;20358;-68
2023/08/06 10:10:31;;;;;;;21.73;10.75;;;13.50;94.70;;;;;;4953948;28;20094;-69
2023/08/06 10:13:01;;;;;;;17.38;9.15;;;13.50;94.90;;;;;;4948269;28;20118;-69
2023/08/06 10:15:31;;;;;;;20.63;7.32;;;13.50;94.70;;;;;;4950128;28;20114;-68
2023/08/06 10:18:00;;;;;;;14.45;5.82;;;13.50;94.80;;;;;;4953728;28;20027;-69
2023/08/06 10:20:27;;;;;;;15.05;6.80;;;13.50;94.60;;;;;;4935715;28;20027;-69
2023/08/06 10:23:07;;;;;;;18.25;6.45;;;13.40;94.70;;;;;;4952757;28;20106;-69
2023/08/06 10:25:36;;;;;;;12.15;6.70;;;13.40;94.90;;;;;;4952381;28;20035;-68
2023/08/06 10:28:17;;;;;;;14.55;6.82;;;13.40;94.80;;;;;;4946547;28;20046;-69
2023/08/06 10:30:48;;;;;;;15.38;7.75;;;13.40;95.00;;;;;;4953276;28;20034;-68
2023/08/06 10:33:23;;;;;;;12.20;6.57;;;13.30;95.00;;;;;;4953038;28;20034;-69
2023/08/06 10:36:09;;;;;;;10.18;6.15;;;13.30;95.10;;;;;;4944256;28;20026;-68
2023/08/06 10:38:50;;;;;;;9.00;5.45;;;13.20;95.00;;;;;;4925631;28;20062;-69
2023/08/06 10:41:31;;;;;;;11.88;4.82;;;13.20;95.20;;;;;;4961623;28;21336;-68
2023/08/06 10:44:08;;;;;;;8.27;4.45;;;13.10;95.20;;;;;;4952591;28;20078;-67
2023/08/06 10:46:37;;;;;;;8.02;3.47;;;13.00;95.20;;;;;;4953987;28;20442;-68
2023/08/06 10:49:07;;;;;;;10.27;3.83;;;12.90;95.20;;;;;;4948836;28;20134;-70
2023/08/06 10:51:35;;;;;;;12.05;4.00;;;12.90;95.40;;;;;;4952892;28;20020;-69
2023/08/06 10:54:03;;;;;;;13.00;4.68;;;12.80;95.50;;;;;;4950385;28;20024;-69
2023/08/06 10:56:31;;;;;;;10.82;4.85;;;12.80;95.60;;;;;;4953131;28;20484;-69
2023/08/06 10:58:59;;;;;;;12.35;4.28;;;12.70;95.70;;;;;;4950273;28;20051;-69
2023/08/06 11:01:30;;;;;;;11.93;4.78;;;12.60;95.90;;;;;;4943675;28;20035;-68
2023/08/06 11:04:01;;;;;;;10.57;4.65;;;12.70;96.00;;;;;;4952278;28;20507;-69
2023/08/06 11:06:29;;;;;;;9.30;3.88;;;12.60;96.10;;;;;;4952668;28;20035;-69
2023/08/06 11:08:56;;;;;;;9.00;4.03;;;12.60;96.00;;;;;;4950448;28;20039;-69
2023/08/06 11:11:24;;;;;;;8.80;4.30;;;12.60;96.00;;;;;;4951595;28;20031;-69
2023/08/06 11:13:52;;;;;;;6.38;4.13;;;12.60;96.10;;;;;;4949469;28;20038;-68
2023/08/06 11:16:25;;;;;;;11.43;4.28;;;12.60;96.00;;;;;;4950188;28;20045;-69
2023/08/06 11:18:54;;;;;;;12.60;4.80;;;12.60;96.30;;;;;;4948216;28;20512;-68
2023/08/06 11:21:21;;;;;;;13.40;4.30;;;12.70;96.30;;;;;;4950310;28;20377;-69
2023/08/06 11:23:49;;;;;;;14.85;5.47;;;12.70;96.10;;;;;;4943393;28;20128;-68
2023/08/06 11:26:27;;;;;;;12.77;6.57;;;12.70;96.00;;;;;;4952991;28;20031;-68
2023/08/06 11:28:54;;;;;;;11.32;5.88;;;12.60;96.00;;;;;;4948596;28;20074;-68
2023/08/06 11:31:23;;;;;;;9.18;5.25;;;12.50;96.00;;;;;;4955620;28;20031;-69
2023/08/06 11:33:55;;;;;;;11.15;5.72;;;12.60;96.20;;;;;;4944457;28;20055;-70
2023/08/06 11:36:40;;;;;;;8.90;5.75;;;12.50;96.10;;;;;;4949355;28;20045;-68
2023/08/06 11:39:08;;;;;;;9.60;4.35;;;12.50;96.10;;;;;;4948098;28;20038;-69
2023/08/06 11:41:42;;;;;;;8.75;4.10;;;12.40;96.00;;;;;;4950198;28;20026;-70
2023/08/06 11:44:13;;;;;;;6.60;3.45;;;12.40;96.20;;;;;;4946474;28;20377;-69
2023/08/06 11:46:59;;;;;;;10.05;4.15;;;12.40;96.10;;;;;;4942596;28;20487;-68
2023/08/06 11:49:49;;;;;;;6.65;3.95;;;12.50;96.10;;;;;;4942333;28;20038;-68
2023/08/06 11:52:24;;;;;;;10.38;3.92;;;12.40;95.90;;;;;;4937201;28;20039;-69
2023/08/06 11:55:11;;;;;;;10.43;5.00;;;12.50;96.00;;;;;;4947936;28;20028;-68
2023/08/06 11:57:40;;;;;;;11.70;4.97;;;12.50;95.70;;;;;;4949571;28;20049;-69
2023/08/06 12:00:13;;;;;;;11.43;5.30;;;12.50;95.70;;;;;;4947051;28;20051;-69
2023/08/06 12:02:41;;;;;;;9.43;4.38;;;12.40;95.60;;;;;;4945574;28;20559;-69
2023/08/06 12:05:26;;;;;;;8.40;4.55;;;12.50;95.70;;;;;;4958043;28;20034;-69
2023/08/06 12:07:58;;;;;;;10.57;4.88;;;12.50;95.80;;;;;;4942642;28;20039;-70
2023/08/06 12:10:32;;;;;;;10.60;3.80;;;12.50;95.70;;;;;;4952480;28;20027;-68
2023/08/06 12:13:00;;;;;;;5.07;3.30;;;12.50;95.40;;;;;;4945699;28;20063;-68
2023/08/06 12:15:28;;;;;;;8.68;4.20;;;12.50;95.40;;;;;;4949270;28;20385;-69
2023/08/06 12:17:55;;;;;;;8.27;3.60;;;12.50;95.40;;;;;;4954716;28;20085;-69
2023/08/06 12:20:22;;;;;;;11.77;3.38;;;12.50;95.30;;;;;;4941725;28;20039;-69
2023/08/06 12:22:50;;;;;;;5.85;3.30;;;12.50;95.20;;;;;;4955566;28;20074;-69
2023/08/06 12:25:17;;;;;;;9.52;3.58;;;12.60;95.10;;;;;;4957551;28;20055;-69
2023/08/06 12:27:47;;;;;;;7.88;3.88;;;12.50;95.00;;;;;;4950483;28;20463;-68
2023/08/06 12:30:15;;;;;;;7.30;3.55;;;12.50;95.00;;;;;;4955540;28;20424;-66
2023/08/06 12:32:43;;;;;;;8.88;3.53;;;12.50;95.10;;;;;;4949990;28;20503;-68
2023/08/06 12:35:10;;;;;;;5.82;3.20;;;12.50;95.20;;;;;;4957562;28;20035;-68
2023/08/06 12:37:40;;;;;;;6.97;3.75;;;12.50;95.20;;;;;;4947778;28;20063;-67
2023/08/06 12:40:08;;;;;;;6.72;4.00;;;12.50;95.20;;;;;;4946648;28;20433;-69
2023/08/06 12:42:35;;;;;;;11.43;3.75;;;12.50;95.40;;;;;;4966147;28;20027;-69
2023/08/06 12:45:03;;;;;;;8.80;3.90;;;12.60;95.20;;;;;;4952008;28;20031;-69
2023/08/06 12:47:30;;;;;;;8.63;4.05;;;12.70;95.00;;;;;;4949265;28;21949;-69
2023/08/06 12:49:57;;;;;;;7.97;4.00;;;12.60;94.90;;;;;;4937911;28;20039;-69